Time;durP1;ratioP1;P1;durP2;ratioP2;P2;SDS_P1;SDS_P2;PMS_P1;PMS_P2;Temp;Humidity;BMP_temperature;BMP_pressure;BME280_temperature;BME280_humidity;BME280_pressure;Samples;Min_cycle;Max_cycle;Signal;HPM_P1;HPM_P2
2022/12/14 00:00:28;;;;;;;;;;;;;;;21.51;33.69;100146.50;7254861;19;153933;-56
2022/12/14 00:02:55;;;;;;;;;;;;;;;21.50;34.03;100139.22;7246263;19;153132;-56
2022/12/14 00:05:22;;;;;;;;;;;;;;;21.49;33.63;100137.56;7251251;19;153783;-56
2022/12/14 00:07:49;;;;;;;;;;;;;;;21.48;33.90;100141.56;7243342;19;156627;-56
2022/12/14 00:10:16;;;;;;;;;;;;;;;21.47;33.53;100135.13;7251272;19;154143;-57
2022/12/14 00:12:43;;;;;;;;;;;;;;;21.46;33.64;100130.66;7250636;19;154201;-57
2022/12/14 00:15:10;;;;;;;;;;;;;;;21.46;33.43;100132.63;7249120;19;152846;-57
2022/12/14 00:17:38;;;;;;;;;;;;;;;21.45;33.62;100128.16;7248085;19;153756;-57
2022/12/14 00:20:05;;;;;;;;;;;;;;;21.42;33.72;100126.84;7251594;19;153862;-57
2022/12/14 00:22:32;;;;;;;;;;;;;;;21.40;33.40;100126.34;7253463;19;155111;-57
2022/12/14 00:24:59;;;;;;;;;;;;;;;21.39;33.58;100130.34;7249251;19;154341;-57
2022/12/14 00:27:26;;;;;;;;;;;;;;;21.38;33.51;100125.88;7246403;19;154631;-57
2022/12/14 00:29:53;;;;;;;;;;;;;;;21.34;33.76;100113.66;7247224;19;152327;-57
2022/12/14 00:32:21;;;;;;;;;;;;;;;21.34;33.85;100113.66;7248189;19;153076;-57
2022/12/14 00:34:48;;;;;;;;;;;;;;;21.32;33.46;100115.97;7249658;19;154446;-57
2022/12/14 00:37:15;;;;;;;;;;;;;;;21.29;33.36;100114.66;7246991;19;155804;-57
2022/12/14 00:39:42;;;;;;;;;;;;;;;21.28;33.55;100112.19;7249279;19;153299;-57
2022/12/14 00:42:09;;;;;;;;;;;;;;;21.26;33.49;100111.66;7249710;19;154189;-56
2022/12/14 00:44:36;;;;;;;;;;;;;;;21.22;33.54;100105.91;7258221;19;154057;-56
2022/12/14 00:47:03;;;;;;;;;;;;;;;21.22;33.50;100102.25;7245019;19;154498;-57
2022/12/14 00:49:30;;;;;;;;;;;;;;;21.18;33.50;100104.91;7249449;19;153397;-56
2022/12/14 00:51:57;;;;;;;;;;;;;;;21.18;33.52;100098.47;7244498;19;154495;-57
2022/12/14 00:54:23;;;;;;;;;;;;;;;21.15;33.77;100099.16;7249834;19;154414;-56
2022/12/14 00:56:50;;;;;;;;;;;;;;;21.11;33.74;100101.78;7250432;19;153486;-56
2022/12/14 00:59:17;;;;;;;;;;;;;;;21.09;34.06;100094.81;7249657;19;155911;-56
2022/12/14 01:01:51;;;;;;;;;;;;;;;21.05;34.43;100094.66;7247016;19;155950;-56
2022/12/14 01:04:18;;;;;;;;;;;;;;;21.04;34.35;100097.81;7250359;19;153610;-56
2022/12/14 01:06:46;;;;;;;;;;;;;;;21.00;34.52;100094.84;7248756;19;153026;-57
2022/12/14 01:09:13;;;;;;;;;;;;;;;20.98;34.42;100096.34;7240641;19;151997;-56
2022/12/14 01:11:42;;;;;;;;;;;;;;;20.95;34.23;100095.00;7240072;19;156017;-57
2022/12/14 01:14:16;;;;;;;;;;;;;;;20.92;34.65;100090.06;7243295;19;155378;-56
2022/12/14 01:16:43;;;;;;;;;;;;;;;20.90;34.87;100085.91;7240652;19;152475;-56
2022/12/14 01:19:11;;;;;;;;;;;;;;;20.86;34.75;100085.75;7247236;19;154711;-56
2022/12/14 01:21:38;;;;;;;;;;;;;;;20.84;34.60;100091.72;7241636;19;154071;-56
2022/12/14 01:24:06;;;;;;;;;;;;;;;20.80;34.65;100090.72;7245253;19;154288;-56
2022/12/14 01:26:35;;;;;;;;;;;;;;;20.76;34.68;100078.50;7248457;19;154682;-56
2022/12/14 01:29:03;;;;;;;;;;;;;;;20.74;34.86;100094.88;7243026;19;154773;-56
2022/12/14 01:31:31;;;;;;;;;;;;;;;20.72;35.40;100082.31;7236929;19;154420;-56
2022/12/14 01:33:58;;;;;;;;;;;;;;;20.69;35.29;100094.19;7242198;19;154029;-56
2022/12/14 01:36:26;;;;;;;;;;;;;;;20.66;35.11;100089.25;7240160;19;152518;-56
2022/12/14 01:38:54;;;;;;;;;;;;;;;20.62;35.62;100091.09;7246641;19;153005;-56
2022/12/14 01:41:21;;;;;;;;;;;;;;;20.60;35.68;100087.75;7241747;19;154598;-56
2022/12/14 01:43:48;;;;;;;;;;;;;;;20.57;35.72;100088.44;7244467;19;152927;-56
2022/12/14 01:46:19;;;;;;;;;;;;;;;20.53;35.74;100088.28;7240517;19;154402;-56
2022/12/14 01:48:47;;;;;;;;;;;;;;;20.50;35.73;100091.72;7251857;19;154390;-56
2022/12/14 01:51:13;;;;;;;;;;;;;;;20.48;35.48;100096.03;7239723;19;153543;-56
2022/12/14 01:53:40;;;;;;;;;;;;;;;20.44;35.60;100093.06;7244213;19;154630;-56
2022/12/14 01:56:07;;;;;;;;;;;;;;;20.40;35.76;100094.84;7244295;19;152688;-55
2022/12/14 01:58:34;;;;;;;;;;;;;;;20.37;35.48;100101.13;7242045;19;154599;-55
2022/12/14 02:01:02;;;;;;;;;;;;;;;20.32;35.41;100098.47;7239741;19;155930;-56
2022/12/14 02:03:31;;;;;;;;;;;;;;;20.29;35.32;100093.50;7245579;19;152749;-56
2022/12/14 02:06:01;;;;;;;;;;;;;;;20.25;35.38;100101.75;7242098;19;155072;-56
2022/12/14 02:08:28;;;;;;;;;;;;;;;20.21;35.48;100106.34;7241252;19;153281;-56
2022/12/14 02:10:56;;;;;;;;;;;;;;;20.17;35.65;100099.72;7253521;19;153782;-56
2022/12/14 02:13:33;;;;;;;;;;;;;;;20.13;35.91;100106.31;7245168;19;156823;-56
2022/12/14 02:16:00;;;;;;;;;;;;;;;20.07;35.58;100097.25;7245390;19;153884;-56
2022/12/14 02:18:28;;;;;;;;;;;;;;;20.03;36.09;100101.03;7245827;19;153478;-56
2022/12/14 02:20:55;;;;;;;;;;;;;;;19.99;35.85;100096.03;7239690;19;153046;-56
2022/12/14 02:23:22;;;;;;;;;;;;;;;19.96;36.14;100102.31;7245984;19;153206;-56
2022/12/14 02:26:01;;;;;;;;;;;;;;;19.93;35.87;100104.94;7248430;19;155886;-56
2022/12/14 02:28:42;;;;;;;;;;;;;;;19.88;35.93;100102.28;7245355;19;154385;-55
2022/12/14 02:31:09;;;;;;;;;;;;;;;19.82;35.79;100103.56;7241427;19;153983;-56
2022/12/14 02:33:45;;;;;;;;;;;;;;;19.79;35.85;100112.66;7252504;19;153545;-56
2022/12/14 02:36:17;;;;;;;;;;;;;;;19.75;36.16;100109.66;7242454;19;155385;-56
2022/12/14 02:38:54;;;;;;;;;;;;;;;19.72;36.11;100104.69;7246374;19;153762;-56
2022/12/14 02:41:28;;;;;;;;;;;;;;;19.68;35.94;100103.69;7244870;19;155064;-57
2022/12/14 02:44:02;;;;;;;;;;;;;;;19.69;35.71;100096.13;7245003;19;153688;-56
2022/12/14 02:46:32;;;;;;;;;;;;;;;19.73;35.82;100088.72;7244920;19;155243;-56
2022/12/14 02:49:01;;;;;;;;;;;;;;;19.66;36.13;100097.59;7246591;19;154747;-55
2022/12/14 02:51:51;;;;;;;;;;;;;;;19.60;36.32;100093.28;7237673;19;153603;-55
2022/12/14 02:54:31;;;;;;;;;;;;;;;19.54;36.12;100091.75;7244578;19;152957;-55
2022/12/14 02:57:08;;;;;;;;;;;;;;;19.47;36.40;100106.25;7250904;19;154618;-55
2022/12/14 02:59:34;;;;;;;;;;;;;;;19.44;36.25;100111.66;7245358;19;155423;-55
2022/12/14 03:02:02;;;;;;;;;;;;;;;19.41;36.57;100106.66;7243560;19;154135;-56
2022/12/14 03:04:29;;;;;;;;;;;;;;;19.37;36.43;100112.09;7242995;19;153937;-55
2022/12/14 03:07:01;;;;;;;;;;;;;;;19.32;36.27;100115.00;7239362;19;154369;-56
2022/12/14 03:09:29;;;;;;;;;;;;;;;19.28;36.38;100105.59;7241676;19;154832;-56
2022/12/14 03:12:05;;;;;;;;;;;;;;;19.25;36.59;100099.81;7237443;19;153966;-56
2022/12/14 03:14:32;;;;;;;;;;;;;;;19.23;36.46;100104.91;7239945;19;153865;-55
2022/12/14 03:17:06;;;;;;;;;;;;;;;19.19;36.38;100110.31;7241272;19;154421;-56
2022/12/14 03:19:38;;;;;;;;;;;;;;;19.15;36.47;100103.72;7248886;19;154591;-56
2022/12/14 03:22:07;;;;;;;;;;;;;;;19.11;36.28;100097.09;7237990;19;154042;-56
2022/12/14 03:24:38;;;;;;;;;;;;;;;19.08;36.68;100097.72;7242542;19;154116;-56
2022/12/14 03:27:08;;;;;;;;;;;;;;;19.05;36.54;100101.16;7240414;19;154555;-56
2022/12/14 03:29:40;;;;;;;;;;;;;;;19.03;36.76;100090.28;7241578;19;154008;-56
2022/12/14 03:32:09;;;;;;;;;;;;;;;19.00;36.54;100088.13;7235082;19;153298;-56
2022/12/14 03:34:39;;;;;;;;;;;;;;;18.96;36.46;100087.13;7219755;19;154107;-56
2022/12/14 03:37:05;;;;;;;;;;;;;;;18.92;36.48;100091.69;7225767;19;155239;-56
2022/12/14 03:39:33;;;;;;;;;;;;;;;18.90;36.78;100087.53;7249747;19;154594;-56
2022/12/14 03:42:15;;;;;;;;;;;;;;;18.88;36.46;100087.88;7239868;19;154457;-56
2022/12/14 03:44:41;;;;;;;;;;;;;;;18.85;36.68;100082.91;7241566;19;154718;-56
2022/12/14 03:47:33;;;;;;;;;;;;;;;18.81;36.43;100090.28;7239689;19;154612;-56
2022/12/14 03:50:04;;;;;;;;;;;;;;;18.79;36.54;100078.59;7235820;19;154185;-56
2022/12/14 03:52:35;;;;;;;;;;;;;;;18.74;36.56;100075.09;7238734;19;153624;-56
2022/12/14 03:55:08;;;;;;;;;;;;;;;18.72;36.70;100074.56;7240961;19;153386;-56
2022/12/14 03:57:37;;;;;;;;;;;;;;;18.68;36.85;100079.97;7240366;19;154665;-60
2022/12/14 04:00:06;;;;;;;;;;;;;;;18.64;36.71;100078.97;7241841;19;152525;-56
2022/12/14 04:02:41;;;;;;;;;;;;;;;18.60;37.02;100075.97;7249885;19;154092;-56
2022/12/14 04:05:12;;;;;;;;;;;;;;;18.56;37.15;100072.16;7241174;19;153918;-56
2022/12/14 04:07:54;;;;;;;;;;;;;;;18.56;36.90;100074.13;7243101;19;154536;-56
2022/12/14 04:19:01;;;;;;;;;;;;;;;18.44;36.96;100090.63;7241936;19;154495;-56
2022/12/14 04:21:41;;;;;;;;;;;;;;;18.41;37.06;100086.47;7237839;19;152835;-56
2022/12/14 04:27:06;;;;;;;;;;;;;;;18.36;37.02;100096.94;7250390;19;154740;-56
2022/12/14 04:32:21;;;;;;;;;;;;;;;18.31;37.38;100102.66;7236291;19;155071;-56
2022/12/14 04:34:55;;;;;;;;;;;;;;;18.28;36.97;100108.88;7238788;19;154128;-56
2022/12/14 04:37:24;;;;;;;;;;;;;;;18.23;37.39;100105.06;7243552;19;153725;-56
2022/12/14 04:39:53;;;;;;;;;;;;;;;18.22;36.99;100103.41;7240442;19;154127;-56
2022/12/14 04:42:26;;;;;;;;;;;;;;;18.21;37.54;100098.94;7243916;19;153644;-56
2022/12/14 04:44:57;;;;;;;;;;;;;;;18.17;37.20;100100.72;7245148;19;153666;-56
2022/12/14 04:47:29;;;;;;;;;;;;;;;18.15;37.53;100103.00;7248860;19;154847;-56
2022/12/14 04:49:59;;;;;;;;;;;;;;;18.14;37.40;100104.13;7254145;19;154012;-56
2022/12/14 04:52:46;;;;;;;;;;;;;;;18.12;37.42;100112.03;7247206;19;153242;-56
2022/12/14 04:55:15;;;;;;;;;;;;;;;18.09;37.63;100114.59;7249741;19;154298;-56
2022/12/14 04:57:46;;;;;;;;;;;;;;;18.07;37.60;100103.75;7250110;19;155520;-56
2022/12/14 05:00:13;;;;;;;;;;;;;;;18.07;37.85;100105.72;7245398;19;154820;-56
2022/12/14 05:02:40;;;;;;;;;;;;;;;18.05;37.82;100096.81;7245019;19;154095;-56
2022/12/14 05:05:09;;;;;;;;;;;;;;;18.02;37.80;100112.25;7241657;19;154240;-55
2022/12/14 05:07:39;;;;;;;;;;;;;;;17.99;37.81;100098.88;7243694;19;154241;-56
2022/12/14 05:10:11;;;;;;;;;;;;;;;17.97;38.20;100103.13;7245855;19;154341;-56
2022/12/14 05:12:42;;;;;;;;;;;;;;;17.95;37.92;100097.00;7250493;19;153899;-56
2022/12/14 05:15:18;;;;;;;;;;;;;;;17.91;38.32;100095.97;7246452;19;154283;-56
2022/12/14 05:17:46;;;;;;;;;;;;;;;17.88;38.49;100093.81;7245133;19;153392;-56
2022/12/14 05:20:14;;;;;;;;;;;;;;;17.87;38.18;100087.41;7240103;19;155934;-56
2022/12/14 05:22:41;;;;;;;;;;;;;;;17.88;38.27;100093.81;7246496;19;154603;-56
2022/12/14 05:25:08;;;;;;;;;;;;;;;17.88;38.35;100085.44;7246347;19;153846;-56
2022/12/14 05:27:35;;;;;;;;;;;;;;;17.93;38.56;100090.91;7246230;19;153835;-55
2022/12/14 05:30:02;;;;;;;;;;;;;;;17.97;38.98;100083.56;7243319;19;152707;-55
2022/12/14 05:32:28;;;;;;;;;;;;;;;17.99;39.45;100090.47;7241129;19;154157;-56
2022/12/14 05:34:55;;;;;;;;;;;;;;;18.01;39.58;100079.84;7243519;19;152522;-55
2022/12/14 05:37:22;;;;;;;;;;;;;;;18.03;39.51;100083.16;7244890;19;155914;-55
2022/12/14 05:39:49;;;;;;;;;;;;;;;18.06;39.66;100087.28;7244310;19;155647;-55
2022/12/14 05:42:15;;;;;;;;;;;;;;;18.08;39.53;100091.41;7245378;19;153507;-56
2022/12/14 05:44:42;;;;;;;;;;;;;;;18.12;39.79;100097.22;7244204;19;154061;-55
2022/12/14 05:47:09;;;;;;;;;;;;;;;18.14;39.87;100101.34;7244123;19;154728;-56
2022/12/14 05:49:36;;;;;;;;;;;;;;;18.18;40.03;100105.16;7243829;19;154744;-56
2022/12/14 05:52:03;;;;;;;;;;;;;;;18.22;39.92;100103.41;7242406;19;154391;-55
2022/12/14 05:54:29;;;;;;;;;;;;;;;18.27;39.76;100098.81;7247027;19;155239;-56
2022/12/14 05:56:56;;;;;;;;;;;;;;;18.31;39.45;100105.44;7244550;19;154063;-55
2022/12/14 05:59:23;;;;;;;;;;;;;;;18.36;39.75;100108.13;7244639;19;154206;-55
2022/12/14 06:01:49;;;;;;;;;;;;;;;18.40;39.63;100109.97;7246759;19;153417;-55
2022/12/14 06:04:17;;;;;;;;;;;;;;;18.45;39.94;100109.03;7245899;19;153584;-55
2022/12/14 06:06:44;;;;;;;;;;;;;;;18.49;39.83;100102.50;7243484;19;155918;-55
2022/12/14 06:09:13;;;;;;;;;;;;;;;18.54;39.30;100112.78;7247582;19;154393;-56
2022/12/14 06:11:40;;;;;;;;;;;;;;;18.57;39.18;100115.78;7246911;19;154857;-56
2022/12/14 06:14:07;;;;;;;;;;;;;;;18.62;39.51;100110.03;7246843;19;152332;-56
2022/12/14 06:16:35;;;;;;;;;;;;;;;18.68;39.42;100110.75;7253857;19;153869;-56
2022/12/14 06:19:03;;;;;;;;;;;;;;;18.73;39.30;100115.41;7243998;19;154542;-56
2022/12/14 06:21:31;;;;;;;;;;;;;;;18.78;39.34;100106.91;7243250;19;152693;-56
2022/12/14 06:23:58;;;;;;;;;;;;;;;18.81;38.88;100104.28;7249586;19;154284;-56
2022/12/14 06:26:26;;;;;;;;;;;;;;;18.86;39.22;100106.13;7245525;19;154546;-56
2022/12/14 06:28:54;;;;;;;;;;;;;;;18.91;39.22;100122.78;7245411;19;153788;-56
2022/12/14 06:31:21;;;;;;;;;;;;;;;18.94;38.73;100117.38;7246192;19;154590;-56
2022/12/14 06:33:48;;;;;;;;;;;;;;;18.98;38.66;100121.22;7242808;19;153441;-56
2022/12/14 06:36:21;;;;;;;;;;;;;;;19.03;38.63;100114.69;7240538;19;152668;-56
2022/12/14 06:38:50;;;;;;;;;;;;;;;19.07;38.87;100124.91;7253567;19;155901;-56
2022/12/14 06:41:18;;;;;;;;;;;;;;;19.12;39.02;100118.38;7248301;19;153179;-55
2022/12/14 06:43:44;;;;;;;;;;;;;;;19.17;39.08;100118.19;7245462;19;156124;-56
2022/12/14 06:46:16;;;;;;;;;;;;;;;19.20;39.15;100122.34;7243271;19;156317;-56
2022/12/14 06:48:47;;;;;;;;;;;;;;;19.24;38.72;100123.38;7247903;19;154521;-56
2022/12/14 06:51:18;;;;;;;;;;;;;;;19.28;39.02;100128.00;7243024;19;154803;-56
2022/12/14 06:53:45;;;;;;;;;;;;;;;19.32;38.54;100131.81;7246258;19;155329;-56
2022/12/14 06:56:13;;;;;;;;;;;;;;;19.35;38.81;100133.97;7246545;19;153522;-56
2022/12/14 06:58:41;;;;;;;;;;;;;;;19.39;38.60;100140.63;7244305;19;155042;-56
2022/12/14 07:01:12;;;;;;;;;;;;;;;19.42;38.56;100139.13;7245016;19;154841;-56
2022/12/14 07:03:40;;;;;;;;;;;;;;;19.46;38.32;100134.56;7243224;19;154181;-56
2022/12/14 07:06:07;;;;;;;;;;;;;;;19.49;38.59;100139.53;7237264;19;154209;-56
2022/12/14 07:08:34;;;;;;;;;;;;;;;19.52;38.39;100142.53;7236540;19;153729;-56
2022/12/14 07:11:02;;;;;;;;;;;;;;;19.56;38.58;100151.13;7241519;19;154262;-57
2022/12/14 07:13:29;;;;;;;;;;;;;;;19.59;38.21;100138.41;7239900;19;154986;-56
2022/12/14 07:15:57;;;;;;;;;;;;;;;19.62;38.48;100152.63;7243583;19;153995;-56
2022/12/14 07:18:24;;;;;;;;;;;;;;;19.66;38.24;100136.84;7242834;19;154333;-56
2022/12/14 07:21:00;;;;;;;;;;;;;;;19.70;38.31;100142.63;7239754;19;153572;-55
2022/12/14 07:23:28;;;;;;;;;;;;;;;19.73;38.50;100147.56;7249922;19;153593;-55
2022/12/14 07:26:03;;;;;;;;;;;;;;;19.76;38.40;100152.53;7241054;19;154437;-55
2022/12/14 07:28:30;;;;;;;;;;;;;;;19.79;38.08;100149.09;7241846;19;154331;-56
2022/12/14 07:30:58;;;;;;;;;;;;;;;19.80;37.60;100153.56;7244295;19;156284;-55
2022/12/14 07:33:25;;;;;;;;;;;;;;;19.81;37.71;100149.56;7237095;19;154308;-54
2022/12/14 07:36:02;;;;;;;;;;;;;;;19.83;37.43;100152.88;7232530;19;152690;-54
2022/12/14 07:38:29;;;;;;;;;;;;;;;19.84;37.11;100148.94;7239810;19;154776;-54
2022/12/14 07:41:12;;;;;;;;;;;;;;;19.86;37.34;100141.03;7238625;19;155505;-54
2022/12/14 07:43:46;;;;;;;;;;;;;;;19.89;36.88;100140.41;7249284;19;154149;-55
2022/12/14 07:46:17;;;;;;;;;;;;;;;19.91;37.09;100144.50;7239401;19;153610;-55
2022/12/14 07:48:45;;;;;;;;;;;;;;;19.92;36.65;100154.59;7225490;19;154095;-55
2022/12/14 07:51:19;;;;;;;;;;;;;;;19.95;36.49;100147.50;7236236;19;154527;-55
2022/12/14 07:53:46;;;;;;;;;;;;;;;19.99;36.82;100154.09;7238864;19;153722;-55
2022/12/14 07:56:15;;;;;;;;;;;;;;;19.99;36.40;100163.34;7242797;19;153432;-55
2022/12/14 07:58:42;;;;;;;;;;;;;;;20.02;36.51;100156.28;7243291;19;153588;-55
2022/12/14 08:01:10;;;;;;;;;;;;;;;20.06;36.59;100162.88;7243638;19;155799;-55
2022/12/14 08:03:37;;;;;;;;;;;;;;;19.83;33.86;100167.75;7244002;19;153983;-55
2022/12/14 08:06:05;;;;;;;;;;;;;;;19.90;33.98;100170.06;7244603;19;153935;-55
2022/12/14 08:08:32;;;;;;;;;;;;;;;19.93;33.82;100173.06;7242212;19;153713;-55
2022/12/14 08:10:59;;;;;;;;;;;;;;;19.94;33.47;100177.50;7242798;19;155148;-55
2022/12/14 08:13:26;;;;;;;;;;;;;;;19.97;33.73;100184.44;7238484;19;156346;-55
2022/12/14 08:15:53;;;;;;;;;;;;;;;19.97;33.95;100182.47;7240825;19;153637;-55
2022/12/14 08:18:24;;;;;;;;;;;;;;;19.99;33.89;100184.94;7244310;19;154526;-55
2022/12/14 08:20:51;;;;;;;;;;;;;;;19.99;33.50;100185.78;7246099;19;154655;-56
2022/12/14 08:23:18;;;;;;;;;;;;;;;19.99;33.75;100191.38;7251547;19;154367;-55
2022/12/14 08:25:51;;;;;;;;;;;;;;;19.99;33.45;100197.00;7251884;19;154514;-55
2022/12/14 08:28:18;;;;;;;;;;;;;;;20.01;34.00;100210.69;7256403;19;154770;-59
2022/12/14 08:30:44;;;;;;;;;;;;;;;20.05;33.93;100202.47;7251471;19;153727;-59
2022/12/14 08:33:11;;;;;;;;;;;;;;;20.07;34.10;100203.81;7248971;19;153847;-56
2022/12/14 08:35:38;;;;;;;;;;;;;;;20.09;34.23;100209.06;7245540;19;154029;-56
2022/12/14 08:38:05;;;;;;;;;;;;;;;20.09;34.17;100209.91;7246282;19;153976;-56
2022/12/14 08:40:35;;;;;;;;;;;;;;;20.11;34.60;100209.59;7249094;19;153782;-56
2022/12/14 08:43:02;;;;;;;;;;;;;;;20.13;34.25;100216.50;7252069;19;153561;-56
2022/12/14 08:45:29;;;;;;;;;;;;;;;20.15;34.58;100205.81;7250009;19;154481;-56
2022/12/14 08:47:56;;;;;;;;;;;;;;;20.18;34.15;100212.72;7248495;19;156378;-55
2022/12/14 08:50:23;;;;;;;;;;;;;;;20.20;34.18;100219.69;7255555;19;153901;-56
2022/12/14 08:52:50;;;;;;;;;;;;;;;20.22;34.09;100219.34;7248544;19;152576;-56
2022/12/14 08:55:17;;;;;;;;;;;;;;;20.24;34.09;100222.66;7247332;19;153761;-56
2022/12/14 08:57:53;;;;;;;;;;;;;;;20.26;34.17;100217.56;7246347;19;152612;-56
2022/12/14 09:00:19;;;;;;;;;;;;;;;20.29;34.16;100216.91;7245482;19;154422;-55
2022/12/14 09:02:48;;;;;;;;;;;;;;;20.31;34.30;100221.06;7245879;19;154167;-56
2022/12/14 09:05:15;;;;;;;;;;;;;;;20.33;34.36;100226.38;7245230;19;153998;-57
2022/12/14 09:07:42;;;;;;;;;;;;;;;20.34;34.08;100220.44;7242119;19;154160;-55
2022/12/14 09:10:09;;;;;;;;;;;;;;;20.37;33.92;100227.38;7246663;19;154497;-55
2022/12/14 09:12:42;;;;;;;;;;;;;;;20.39;33.84;100228.72;7251214;19;154600;-55
2022/12/14 09:15:10;;;;;;;;;;;;;;;20.41;34.07;100232.00;7243438;19;153554;-55
2022/12/14 09:17:37;;;;;;;;;;;;;;;20.42;34.22;100235.63;7247287;19;155188;-54
2022/12/14 09:20:04;;;;;;;;;;;;;;;20.46;33.88;100242.25;7241242;19;154857;-54
2022/12/14 09:22:31;;;;;;;;;;;;;;;20.46;34.19;100245.06;7246105;19;153404;-55
2022/12/14 09:24:57;;;;;;;;;;;;;;;20.49;34.15;100240.78;7246469;19;155305;-55
2022/12/14 09:27:24;;;;;;;;;;;;;;;20.50;34.14;100237.63;7244591;19;153955;-55
2022/12/14 09:29:51;;;;;;;;;;;;;;;20.52;33.77;100237.31;7243359;19;153553;-55
2022/12/14 09:32:17;;;;;;;;;;;;;;;20.55;33.88;100239.47;7244468;19;154568;-55
2022/12/14 09:34:44;;;;;;;;;;;;;;;20.55;33.77;100245.91;7246974;19;153453;-55
2022/12/14 09:37:11;;;;;;;;;;;;;;;20.58;33.76;100250.06;7241947;19;154377;-55
2022/12/14 09:39:38;;;;;;;;;;;;;;;20.59;34.04;100249.72;7240533;19;154582;-55
2022/12/14 09:42:34;;;;;;;;;;;;;;;20.62;33.57;100253.88;7244455;19;153792;-55
2022/12/14 09:45:01;;;;;;;;;;;;;;;20.64;33.64;100268.38;7245587;19;153332;-55
2022/12/14 09:47:31;;;;;;;;;;;;;;;20.64;33.34;100286.06;7242861;19;155711;-55
2022/12/14 09:50:05;;;;;;;;;;;;;;;20.66;33.43;100285.75;7242567;19;152926;-55
2022/12/14 09:52:39;;;;;;;;;;;;;;;20.66;33.19;100286.56;7248595;19;154323;-55
2022/12/14 09:55:15;;;;;;;;;;;;;;;20.66;33.49;100289.38;7253320;19;154365;-55
2022/12/14 09:57:43;;;;;;;;;;;;;;;20.66;33.38;100289.38;7248106;19;154504;-55
2022/12/14 10:00:12;;;;;;;;;;;;;;;20.67;32.94;100293.03;7245875;19;155271;-55
2022/12/14 10:02:45;;;;;;;;;;;;;;;20.66;33.17;100294.16;7247311;19;153544;-55
2022/12/14 10:05:30;;;;;;;;;;;;;;;20.65;32.84;100296.16;7243518;19;153934;-55
2022/12/14 10:08:02;;;;;;;;;;;;;;;20.65;32.92;100304.56;7244831;19;153430;-55
2022/12/14 10:10:48;;;;;;;;;;;;;;;20.65;33.13;100301.75;7247859;19;153679;-55
2022/12/14 10:13:19;;;;;;;;;;;;;;;20.65;32.63;100301.75;7247306;19;154427;-56
2022/12/14 10:15:56;;;;;;;;;;;;;;;20.65;32.84;100306.53;7244954;19;156121;-55
2022/12/14 10:18:40;;;;;;;;;;;;;;;20.63;32.85;100303.22;7254712;19;153068;-55
2022/12/14 10:21:30;;;;;;;;;;;;;;;20.62;32.53;100304.41;7239943;19;156184;-55
2022/12/14 10:23:59;;;;;;;;;;;;;;;20.60;32.76;100307.50;7248171;19;153514;-55
2022/12/14 10:26:30;;;;;;;;;;;;;;;20.58;32.85;100301.38;7246414;19;153999;-55
2022/12/14 10:29:26;;;;;;;;;;;;;;;20.57;32.58;100291.34;7245825;19;154129;-55
2022/12/14 10:32:02;;;;;;;;;;;;;;;20.56;32.58;100294.47;7244739;19;154574;-55
2022/12/14 10:34:29;;;;;;;;;;;;;;;20.53;32.52;100297.91;7245620;19;154865;-55
2022/12/14 10:37:05;;;;;;;;;;;;;;;20.51;32.69;100303.84;7242066;19;156637;-55
2022/12/14 10:39:42;;;;;;;;;;;;;;;20.48;32.44;100293.28;7244549;19;154297;-55
2022/12/14 10:42:20;;;;;;;;;;;;;;;20.45;32.70;100299.53;7253859;19;154481;-55
2022/12/14 10:44:54;;;;;;;;;;;;;;;20.42;32.62;100301.00;7245280;19;153289;-56
2022/12/14 10:47:43;;;;;;;;;;;;;;;20.37;32.46;100291.91;7245445;19;157015;-54
2022/12/14 10:50:19;;;;;;;;;;;;;;;20.31;31.69;100296.81;7240373;19;154750;-54
2022/12/14 10:52:47;;;;;;;;;;;;;;;20.26;31.56;100296.13;7243017;19;153907;-54
2022/12/14 10:55:17;;;;;;;;;;;;;;;20.20;31.57;100298.22;7239980;19;153223;-55
2022/12/14 10:57:44;;;;;;;;;;;;;;;20.18;31.67;100296.88;7242402;19;155869;-55
2022/12/14 11:00:12;;;;;;;;;;;;;;;20.13;31.61;100308.22;7242936;19;153680;-54
2022/12/14 11:02:52;;;;;;;;;;;;;;;20.08;31.54;100297.19;7242867;19;153271;-55
2022/12/14 11:05:23;;;;;;;;;;;;;;;20.03;31.74;100295.34;7245439;19;153563;-54
2022/12/14 11:07:49;;;;;;;;;;;;;;;19.99;31.21;100300.75;7242068;19;153210;-54
2022/12/14 11:10:24;;;;;;;;;;;;;;;19.95;31.52;100294.13;7241016;19;153994;-54
2022/12/14 11:12:54;;;;;;;;;;;;;;;19.91;31.33;100300.69;7242082;19;152492;-54
2022/12/14 11:15:32;;;;;;;;;;;;;;;19.88;31.49;100296.56;7238921;19;155289;-55
2022/12/14 11:18:00;;;;;;;;;;;;;;;19.84;31.70;100298.34;7241363;19;154747;-55
2022/12/14 11:20:29;;;;;;;;;;;;;;;19.81;31.49;100306.53;7239522;19;153669;-55
2022/12/14 11:22:57;;;;;;;;;;;;;;;19.77;31.78;100300.75;7243582;19;154231;-55
2022/12/14 11:25:34;;;;;;;;;;;;;;;19.77;31.62;100297.13;7237097;19;153278;-55
2022/12/14 11:28:16;;;;;;;;;;;;;;;19.75;31.67;100302.25;7249277;19;154000;-55
2022/12/14 11:31:08;;;;;;;;;;;;;;;19.76;32.16;100301.09;7238510;19;153183;-55
2022/12/14 11:33:45;;;;;;;;;;;;;;;19.76;31.83;100304.69;7240562;19;154277;-55
2022/12/14 11:36:21;;;;;;;;;;;;;;;19.77;32.25;100309.16;7236155;19;154766;-54
2022/12/14 11:38:59;;;;;;;;;;;;;;;19.78;32.20;100299.63;7237797;19;154623;-55
2022/12/14 11:41:37;;;;;;;;;;;;;;;19.79;31.97;100300.44;7237327;19;153487;-54
2022/12/14 11:44:13;;;;;;;;;;;;;;;19.81;32.35;100298.97;7240095;19;153522;-55
2022/12/14 11:46:57;;;;;;;;;;;;;;;19.81;32.29;100296.16;7239801;19;153426;-55
2022/12/14 11:49:30;;;;;;;;;;;;;;;19.83;32.09;100293.06;7244897;19;152839;-55
2022/12/14 11:51:59;;;;;;;;;;;;;;;19.83;32.09;100305.09;7246117;19;153573;-54
2022/12/14 11:54:26;;;;;;;;;;;;;;;19.85;31.95;100291.56;7249237;19;153606;-54
2022/12/14 11:57:01;;;;;;;;;;;;;;;19.86;32.33;100287.63;7251537;19;152724;-55
2022/12/14 11:59:39;;;;;;;;;;;;;;;19.88;32.13;100290.13;7250237;19;154512;-55
2022/12/14 12:02:21;;;;;;;;;;;;;;;19.89;32.29;100289.81;7248473;19;154560;-54
2022/12/14 12:04:56;;;;;;;;;;;;;;;19.92;32.21;100291.13;7250179;19;152898;-55
2022/12/14 12:07:43;;;;;;;;;;;;;;;19.93;31.81;100296.44;7248555;19;155495;-54
2022/12/14 12:10:12;;;;;;;;;;;;;;;19.94;32.13;100292.44;7249735;19;155008;-55
2022/12/14 12:12:50;;;;;;;;;;;;;;;19.97;31.90;100299.41;7258296;19;153301;-55
2022/12/14 12:15:25;;;;;;;;;;;;;;;19.98;32.13;100301.91;7247637;19;153092;-55
2022/12/14 12:17:59;;;;;;;;;;;;;;;20.01;31.78;100308.84;7252097;19;153309;-55
2022/12/14 12:20:49;;;;;;;;;;;;;;;20.02;32.13;100307.69;7248194;19;154263;-55
2022/12/14 12:23:19;;;;;;;;;;;;;;;20.04;31.64;100304.56;7255380;19;153830;-55
2022/12/14 12:25:47;;;;;;;;;;;;;;;20.06;32.00;100305.91;7252571;19;154981;-55
2022/12/14 12:28:19;;;;;;;;;;;;;;;20.05;31.68;100298.63;7250167;19;155015;-54
2022/12/14 12:30:48;;;;;;;;;;;;;;;20.06;31.55;100305.91;7252192;19;152267;-55
2022/12/14 12:33:27;;;;;;;;;;;;;;;20.05;31.57;100307.03;7251824;19;154829;-55
2022/12/14 12:35:55;;;;;;;;;;;;;;;20.05;31.77;100312.66;7251069;19;154751;-55
2022/12/14 12:38:24;;;;;;;;;;;;;;;20.06;31.67;100316.28;7255777;19;154350;-55
2022/12/14 12:40:55;;;;;;;;;;;;;;;20.06;31.20;100319.09;7246182;19;153322;-55
2022/12/14 12:43:45;;;;;;;;;;;;;;;20.06;31.51;100316.28;7254251;19;153763;-55
2022/12/14 12:46:17;;;;;;;;;;;;;;;20.04;31.47;100325.00;7248193;19;153316;-55
2022/12/14 12:48:47;;;;;;;;;;;;;;;20.03;31.12;100320.56;7249758;19;153930;-54
2022/12/14 12:51:28;;;;;;;;;;;;;;;20.03;31.28;100325.34;7243716;19;154445;-55
2022/12/14 12:53:58;;;;;;;;;;;;;;;20.02;31.41;100326.50;7248032;19;153483;-55
2022/12/14 12:56:35;;;;;;;;;;;;;;;20.01;31.46;100322.84;7241979;19;155887;-55
2022/12/14 12:59:03;;;;;;;;;;;;;;;20.00;31.70;100315.59;7254061;19;153515;-56